PWSweather.com
Personal Weather Stations
Station Observations
KILDUNLA3
Devonshire, Dunlap, IL 61525

DevonshireDunlap, IL 61525

Lat: 40.82881546, Lon: -89.62155914

Elevation: 758

Station Type: Oregon Scientific WMR100

http://jimroal.com

Latest ConditionsUpdated 11:58:05 AM CDT Sunday, Sep 23, 2018
Currently Today's Max Today's Min Today's Average
Temperature 67.9°F19.9°C 67.9°F19.9°C 49.3°F9.6°C 54.9°F12.7°C
Dew Point 49.8°F9.9°C 51.2°F10.7°C 40.3°F4.6°C 44.6°F7.0°C
Winds 3.7 mph N6.0 kmh N 5.2 mph -8.4 kmh - - 1.6 mph 2.6 kmh
Wind Gusts 5.6 mph9.0 kmh 8.5 mph13.7 kmh - -
Humidity 52% 79% 52% 69%
Pressure 30.08 in1018.6 mb 30.12 in1020.0 mb 30.08 in1018.6 mb -
Hour Temp Dew Point Humidity Winds Wind Gusts Pressure Precip Precip Rate Daily Precip Total
11:58 AM 67.9°F19.9°C 49.8°F9.9°C 52% 3.7 mph N6.0 kmh N 5.6 mph9.0 kmh 30.08 in1018.6 mb 0.00 in0.0 mm 0.00 in0.0 mm 0.00 in0.0 mm
11:53 AM 67.7°F19.8°C 50.1°F10.1°C 53% 2.7 mph E4.3 kmh E 5.6 mph9.0 kmh 30.09 in1019.0 mb 0.00 in0.0 mm 0.00 in0.0 mm 0.00 in0.0 mm
11:48 AM 67.3°F19.6°C 50.1°F10.1°C 54% 2.9 mph E4.7 kmh E 6.3 mph10.1 kmh 30.09 in1019.0 mb 0.00 in0.0 mm 0.00 in0.0 mm 0.00 in0.0 mm
11:43 AM 67.0°F19.4°C 50.5°F10.3°C 55% 4.2 mph NNE6.8 kmh NNE 6.3 mph10.1 kmh 30.09 in1019.0 mb 0.00 in0.0 mm 0.00 in0.0 mm 0.00 in0.0 mm
11:38 AM 66.7°F19.3°C 50.5°F10.3°C 56% 2.0 mph ENE3.2 kmh ENE 5.8 mph9.3 kmh 30.09 in1019.0 mb 0.00 in0.0 mm 0.00 in0.0 mm 0.00 in0.0 mm
11:33 AM 66.5°F19.2°C 50.5°F10.3°C 56% 4.1 mph NNE6.6 kmh NNE 8.5 mph13.7 kmh 30.09 in1019.0 mb 0.00 in0.0 mm 0.00 in0.0 mm 0.00 in0.0 mm
11:28 AM 66.4°F19.1°C 50.7°F10.4°C 57% 5.2 mph NNW8.4 kmh NNW 8.5 mph13.7 kmh 30.10 in1019.3 mb 0.00 in0.0 mm 0.00 in0.0 mm 0.00 in0.0 mm
11:23 AM 66.4°F19.1°C 51.0°F10.6°C 58% 3.2 mph NNE5.1 kmh NNE 5.6 mph9.0 kmh 30.10 in1019.3 mb 0.00 in0.0 mm 0.00 in0.0 mm 0.00 in0.0 mm
11:18 AM 66.2°F19.0°C 51.2°F10.7°C 59% 2.9 mph E4.7 kmh E 6.0 mph9.7 kmh 30.10 in1019.3 mb 0.00 in0.0 mm 0.00 in0.0 mm 0.00 in0.0 mm
11:13 AM 65.8°F18.8°C 50.8°F10.4°C 59% 3.8 mph NE6.1 kmh NE 6.0 mph9.7 kmh 30.10 in1019.3 mb 0.00 in0.0 mm 0.00 in0.0 mm 0.00 in0.0 mm
11:08 AM 65.5°F18.6°C 51.0°F10.6°C 59% 3.3 mph S5.3 kmh S 5.8 mph9.3 kmh 30.11 in1019.6 mb 0.00 in0.0 mm 0.00 in0.0 mm 0.00 in0.0 mm
11:03 AM 65.1°F18.4°C 50.8°F10.4°C 60% 2.3 mph E3.7 kmh E 6.9 mph11.1 kmh 30.11 in1019.6 mb 0.00 in0.0 mm 0.00 in0.0 mm 0.00 in0.0 mm
10:58 AM 64.8°F18.2°C 50.5°F10.3°C 60% 4.0 mph N6.4 kmh N 6.9 mph11.1 kmh 30.11 in1019.6 mb 0.00 in0.0 mm 0.00 in0.0 mm 0.00 in0.0 mm
10:53 AM 64.4°F18.0°C 50.6°F10.3°C 61% 4.0 mph N6.4 kmh N 6.5 mph10.5 kmh 30.11 in1019.6 mb 0.00 in0.0 mm 0.00 in0.0 mm 0.00 in0.0 mm
10:48 AM 64.0°F17.8°C 50.3°F10.2°C 61% 2.0 mph SSE3.2 kmh SSE 4.9 mph7.9 kmh 30.11 in1019.6 mb 0.00 in0.0 mm 0.00 in0.0 mm 0.00 in0.0 mm
10:43 AM 63.8°F17.7°C 50.7°F10.4°C 62% 2.8 mph ENE4.5 kmh ENE 4.9 mph7.9 kmh 30.12 in1020.0 mb 0.00 in0.0 mm 0.00 in0.0 mm 0.00 in0.0 mm
10:38 AM 63.4°F17.4°C 50.6°F10.3°C 63% 1.9 mph WNW3.1 kmh WNW 4.3 mph6.9 kmh 30.12 in1020.0 mb 0.00 in0.0 mm 0.00 in0.0 mm 0.00 in0.0 mm
10:33 AM 63.1°F17.3°C 50.4°F10.2°C 63% 2.6 mph NNE4.2 kmh NNE 3.8 mph6.1 kmh 30.12 in1020.0 mb 0.00 in0.0 mm 0.00 in0.0 mm 0.00 in0.0 mm
10:28 AM 62.6°F17.0°C 50.2°F10.1°C 64% 2.1 mph NE3.4 kmh NE 4.7 mph7.6 kmh 30.12 in1020.0 mb 0.00 in0.0 mm 0.00 in0.0 mm 0.00 in0.0 mm
10:23 AM 62.2°F16.8°C 51.2°F10.7°C 67% 2.3 mph SSE3.7 kmh SSE 4.7 mph7.6 kmh 30.12 in1020.0 mb 0.00 in0.0 mm 0.00 in0.0 mm 0.00 in0.0 mm
10:18 AM 61.8°F16.6°C 51.2°F10.7°C 68% 2.8 mph SSE4.5 kmh SSE 4.0 mph6.4 kmh 30.12 in1020.0 mb 0.00 in0.0 mm 0.00 in0.0 mm 0.00 in0.0 mm
10:13 AM 61.1°F16.2°C 50.9°F10.5°C 69% 2.2 mph SE3.5 kmh SE 3.4 mph5.5 kmh 30.12 in1020.0 mb 0.00 in0.0 mm 0.00 in0.0 mm 0.00 in0.0 mm
10:08 AM 60.5°F15.8°C 50.6°F10.3°C 70% 2.0 mph ENE3.2 kmh ENE 5.6 mph9.0 kmh 30.12 in1020.0 mb 0.00 in0.0 mm 0.00 in0.0 mm 0.00 in0.0 mm
10:03 AM 60.2°F15.7°C 50.4°F10.2°C 70% 2.8 mph NNE4.5 kmh NNE 5.6 mph9.0 kmh 30.12 in1020.0 mb 0.00 in0.0 mm 0.00 in0.0 mm 0.00 in0.0 mm
09:58 AM 59.8°F15.4°C 50.4°F10.2°C 71% 2.4 mph ENE3.9 kmh ENE 4.3 mph6.9 kmh 30.12 in1020.0 mb 0.00 in0.0 mm 0.00 in0.0 mm 0.00 in0.0 mm
09:53 AM 59.3°F15.2°C 49.9°F9.9°C 71% 2.7 mph ENE4.3 kmh ENE 4.3 mph6.9 kmh 30.12 in1020.0 mb 0.00 in0.0 mm 0.00 in0.0 mm 0.00 in0.0 mm
09:48 AM 58.9°F14.9°C 49.6°F9.8°C 71% 1.9 mph E3.1 kmh E 3.6 mph5.8 kmh 30.12 in1020.0 mb 0.00 in0.0 mm 0.00 in0.0 mm 0.00 in0.0 mm
09:43 AM 58.6°F14.8°C 49.5°F9.7°C 72% 2.2 mph E3.5 kmh E 4.0 mph6.4 kmh 30.12 in1020.0 mb 0.00 in0.0 mm 0.00 in0.0 mm 0.00 in0.0 mm
09:38 AM 58.2°F14.6°C 49.3°F9.6°C 72% 2.3 mph E3.7 kmh E 4.0 mph6.4 kmh 30.12 in1020.0 mb 0.00 in0.0 mm 0.00 in0.0 mm 0.00 in0.0 mm
09:33 AM 58.0°F14.4°C 49.2°F9.6°C 72% 1.5 mph ESE2.4 kmh ESE 2.9 mph4.7 kmh 30.11 in1019.6 mb 0.00 in0.0 mm 0.00 in0.0 mm 0.00 in0.0 mm
09:28 AM 57.7°F14.3°C 49.2°F9.6°C 73% 1.5 mph ENE2.4 kmh ENE 3.8 mph6.1 kmh 30.12 in1020.0 mb 0.00 in0.0 mm 0.00 in0.0 mm 0.00 in0.0 mm
09:23 AM 57.6°F14.2°C 49.2°F9.6°C 74% 2.5 mph E4.0 kmh E 3.8 mph6.1 kmh 30.11 in1019.6 mb 0.00 in0.0 mm 0.00 in0.0 mm 0.00 in0.0 mm
09:18 AM 57.4°F14.1°C 49.4°F9.7°C 75% 2.2 mph NE3.5 kmh NE 4.3 mph6.9 kmh 30.11 in1019.6 mb 0.00 in0.0 mm 0.00 in0.0 mm 0.00 in0.0 mm
09:13 AM 57.0°F13.9°C 49.1°F9.5°C 75% 1.5 mph NE2.4 kmh NE 4.3 mph6.9 kmh 30.11 in1019.6 mb 0.00 in0.0 mm 0.00 in0.0 mm 0.00 in0.0 mm
09:08 AM 56.8°F13.8°C 49.1°F9.5°C 76% 2.4 mph N3.9 kmh N 4.0 mph6.4 kmh 30.11 in1019.6 mb 0.00 in0.0 mm 0.00 in0.0 mm 0.00 in0.0 mm
09:03 AM 56.3°F13.5°C 48.7°F9.3°C 76% 1.8 mph E2.9 kmh E 2.9 mph4.7 kmh 30.11 in1019.6 mb 0.00 in0.0 mm 0.00 in0.0 mm 0.00 in0.0 mm
08:58 AM 56.0°F13.3°C 48.4°F9.1°C 76% 1.4 mph E2.3 kmh E 3.4 mph5.5 kmh 30.11 in1019.6 mb 0.00 in0.0 mm 0.00 in0.0 mm 0.00 in0.0 mm
08:53 AM 55.6°F13.1°C 48.2°F9.0°C 76% 1.6 mph E2.6 kmh E 3.6 mph5.8 kmh 30.11 in1019.6 mb 0.00 in0.0 mm 0.00 in0.0 mm 0.00 in0.0 mm
08:48 AM 55.3°F12.9°C 48.0°F8.9°C 76% 2.5 mph ENE4.0 kmh ENE 3.6 mph5.8 kmh 30.11 in1019.6 mb 0.00 in0.0 mm 0.00 in0.0 mm 0.00 in0.0 mm
08:43 AM 54.8°F12.7°C 47.7°F8.7°C 77% 1.9 mph ENE3.1 kmh ENE 3.8 mph6.1 kmh 30.11 in1019.6 mb 0.00 in0.0 mm 0.00 in0.0 mm 0.00 in0.0 mm
08:38 AM 54.5°F12.5°C 47.4°F8.6°C 77% 2.7 mph E4.3 kmh E 3.8 mph6.1 kmh 30.11 in1019.6 mb 0.00 in0.0 mm 0.00 in0.0 mm 0.00 in0.0 mm
08:33 AM 54.1°F12.3°C 47.2°F8.4°C 77% 1.7 mph E2.7 kmh E 3.8 mph6.1 kmh 30.11 in1019.6 mb 0.00 in0.0 mm 0.00 in0.0 mm 0.00 in0.0 mm
08:28 AM 53.7°F12.1°C 46.5°F8.1°C 77% 2.5 mph ENE4.0 kmh ENE 4.3 mph6.9 kmh 30.11 in1019.6 mb 0.00 in0.0 mm 0.00 in0.0 mm 0.00 in0.0 mm
08:23 AM 53.5°F11.9°C 46.8°F8.2°C 78% 2.7 mph E4.3 kmh E 4.3 mph6.9 kmh 30.11 in1019.6 mb 0.00 in0.0 mm 0.00 in0.0 mm 0.00 in0.0 mm
08:18 AM 53.0°F11.7°C 46.3°F7.9°C 78% 2.0 mph E3.2 kmh E 4.0 mph6.4 kmh 30.11 in1019.6 mb 0.00 in0.0 mm 0.00 in0.0 mm 0.00 in0.0 mm
08:13 AM 52.8°F11.6°C 46.1°F7.8°C 78% 2.2 mph E3.5 kmh E 4.0 mph6.4 kmh 30.11 in1019.6 mb 0.00 in0.0 mm 0.00 in0.0 mm 0.00 in0.0 mm
08:08 AM 52.6°F11.4°C 46.1°F7.8°C 78% 1.8 mph E2.9 kmh E 3.4 mph5.5 kmh 30.11 in1019.6 mb 0.00 in0.0 mm 0.00 in0.0 mm 0.00 in0.0 mm
08:03 AM 52.4°F11.3°C 46.0°F7.8°C 79% 1.2 mph E1.9 kmh E 3.4 mph5.5 kmh 30.11 in1019.6 mb 0.00 in0.0 mm 0.00 in0.0 mm 0.00 in0.0 mm
07:58 AM 52.0°F11.1°C 45.6°F7.6°C 79% 1.8 mph E2.9 kmh E 2.9 mph4.7 kmh 30.11 in1019.6 mb 0.00 in0.0 mm 0.00 in0.0 mm 0.00 in0.0 mm
07:53 AM 51.4°F10.8°C 45.1°F7.3°C 79% 1.4 mph E2.3 kmh E 2.9 mph4.7 kmh 30.11 in1019.6 mb 0.00 in0.0 mm 0.00 in0.0 mm 0.00 in0.0 mm
07:48 AM 50.8°F10.4°C 44.4°F6.9°C 79% 1.2 mph E1.9 kmh E 3.1 mph5.0 kmh 30.11 in1019.6 mb 0.00 in0.0 mm 0.00 in0.0 mm 0.00 in0.0 mm
07:43 AM 50.3°F10.2°C 43.7°F6.5°C 78% 2.1 mph E3.4 kmh E 3.1 mph5.0 kmh 30.11 in1019.6 mb 0.00 in0.0 mm 0.00 in0.0 mm 0.00 in0.0 mm
07:38 AM 50.1°F10.1°C 43.5°F6.4°C 78% 1.4 mph E2.3 kmh E 2.5 mph4.0 kmh 30.10 in1019.3 mb 0.00 in0.0 mm 0.00 in0.0 mm 0.00 in0.0 mm
07:33 AM 49.9°F9.9°C 43.3°F6.3°C 78% 1.4 mph E2.3 kmh E 3.4 mph5.5 kmh 30.10 in1019.3 mb 0.00 in0.0 mm 0.00 in0.0 mm 0.00 in0.0 mm
07:28 AM 49.7°F9.8°C 43.0°F6.1°C 78% 2.2 mph ENE3.5 kmh ENE 3.4 mph5.5 kmh 30.10 in1019.3 mb 0.00 in0.0 mm 0.00 in0.0 mm 0.00 in0.0 mm
07:23 AM 49.6°F9.8°C 43.0°F6.1°C 78% 1.4 mph E2.3 kmh E 3.4 mph5.5 kmh 30.10 in1019.3 mb 0.00 in0.0 mm 0.00 in0.0 mm 0.00 in0.0 mm
07:18 AM 49.5°F9.7°C 42.9°F6.1°C 78% 1.6 mph E2.6 kmh E 3.4 mph5.5 kmh 30.10 in1019.3 mb 0.00 in0.0 mm 0.00 in0.0 mm 0.00 in0.0 mm
07:13 AM 49.4°F9.7°C 42.6°F5.9°C 77% 1.6 mph ENE2.6 kmh ENE 3.4 mph5.5 kmh 30.10 in1019.3 mb 0.00 in0.0 mm 0.00 in0.0 mm 0.00 in0.0 mm
07:08 AM 49.3°F9.6°C 42.3°F5.7°C 77% 1.7 mph E2.7 kmh E 3.8 mph6.1 kmh 30.10 in1019.3 mb 0.00 in0.0 mm 0.00 in0.0 mm 0.00 in0.0 mm
07:03 AM 49.4°F9.7°C 42.4°F5.8°C 77% 2.1 mph E3.4 kmh E 3.8 mph6.1 kmh 30.10 in1019.3 mb 0.00 in0.0 mm 0.00 in0.0 mm 0.00 in0.0 mm
06:58 AM 49.3°F9.6°C 42.3°F5.7°C 77% 2.4 mph ENE3.9 kmh ENE 3.8 mph6.1 kmh 30.10 in1019.3 mb 0.00 in0.0 mm 0.00 in0.0 mm 0.00 in0.0 mm
06:53 AM 49.3°F9.6°C 42.3°F5.7°C 77% 2.3 mph E3.7 kmh E 3.6 mph5.8 kmh 30.10 in1019.3 mb 0.00 in0.0 mm 0.00 in0.0 mm 0.00 in0.0 mm
06:48 AM 49.4°F9.7°C 42.4°F5.8°C 77% 2.2 mph ENE3.5 kmh ENE 3.6 mph5.8 kmh 30.10 in1019.3 mb 0.00 in0.0 mm 0.00 in0.0 mm 0.00 in0.0 mm
06:43 AM 49.5°F9.7°C 42.4°F5.8°C 77% 1.9 mph ENE3.1 kmh ENE 3.4 mph5.5 kmh 30.09 in1019.0 mb 0.00 in0.0 mm 0.00 in0.0 mm 0.00 in0.0 mm
06:38 AM 49.5°F9.7°C 42.4°F5.8°C 77% 1.7 mph E2.7 kmh E 3.6 mph5.8 kmh 30.10 in1019.3 mb 0.00 in0.0 mm 0.00 in0.0 mm 0.00 in0.0 mm
06:33 AM 49.6°F9.8°C 42.6°F5.9°C 77% 2.0 mph ENE3.2 kmh ENE 3.6 mph5.8 kmh 30.09 in1019.0 mb 0.00 in0.0 mm 0.00 in0.0 mm 0.00 in0.0 mm
06:28 AM 49.6°F9.8°C 42.6°F5.9°C 77% 2.4 mph ENE3.9 kmh ENE 3.4 mph5.5 kmh 30.09 in1019.0 mb 0.00 in0.0 mm 0.00 in0.0 mm 0.00 in0.0 mm
06:23 AM 49.7°F9.8°C 42.6°F5.9°C 76% 2.2 mph ENE3.5 kmh ENE 3.4 mph5.5 kmh 30.09 in1019.0 mb 0.00 in0.0 mm 0.00 in0.0 mm 0.00 in0.0 mm
06:18 AM 49.8°F9.9°C 42.7°F5.9°C 76% 1.8 mph E2.9 kmh E 3.6 mph5.8 kmh 30.09 in1019.0 mb 0.00 in0.0 mm 0.00 in0.0 mm 0.00 in0.0 mm
06:13 AM 49.8°F9.9°C 42.5°F5.8°C 76% 2.0 mph ENE3.2 kmh ENE 3.6 mph5.8 kmh 30.09 in1019.0 mb 0.00 in0.0 mm 0.00 in0.0 mm 0.00 in0.0 mm
06:08 AM 49.9°F9.9°C 42.5°F5.8°C 76% 1.9 mph NE3.1 kmh NE 3.6 mph5.8 kmh 30.09 in1019.0 mb 0.00 in0.0 mm 0.00 in0.0 mm 0.00 in0.0 mm
06:03 AM 49.9°F9.9°C 42.4°F5.8°C 76% 2.2 mph ENE3.5 kmh ENE 3.6 mph5.8 kmh 30.09 in1019.0 mb 0.00 in0.0 mm 0.00 in0.0 mm 0.00 in0.0 mm
05:58 AM 50.0°F10.0°C 42.4°F5.8°C 75% 2.1 mph ENE3.4 kmh ENE 4.3 mph6.9 kmh 30.09 in1019.0 mb 0.00 in0.0 mm 0.00 in0.0 mm 0.00 in0.0 mm
05:53 AM 50.0°F10.0°C 42.2°F5.7°C 74% 2.1 mph ENE3.4 kmh ENE 4.3 mph6.9 kmh 30.09 in1019.0 mb 0.00 in0.0 mm 0.00 in0.0 mm 0.00 in0.0 mm
05:48 AM 50.2°F10.1°C 42.3°F5.7°C 74% 2.1 mph ENE3.4 kmh ENE 2.9 mph4.7 kmh 30.09 in1019.0 mb 0.00 in0.0 mm 0.00 in0.0 mm 0.00 in0.0 mm
05:43 AM 50.2°F10.1°C 42.4°F5.8°C 74% 1.7 mph ENE2.7 kmh ENE 3.1 mph5.0 kmh 30.08 in1018.6 mb 0.00 in0.0 mm 0.00 in0.0 mm 0.00 in0.0 mm
05:38 AM 50.2°F10.1°C 42.4°F5.8°C 74% 2.1 mph ENE3.4 kmh ENE 3.1 mph5.0 kmh 30.09 in1019.0 mb 0.00 in0.0 mm 0.00 in0.0 mm 0.00 in0.0 mm
05:33 AM 50.2°F10.1°C 42.4°F5.8°C 74% 1.4 mph E2.3 kmh E 2.7 mph4.3 kmh 30.08 in1018.6 mb 0.00 in0.0 mm 0.00 in0.0 mm 0.00 in0.0 mm
05:28 AM 50.2°F10.1°C 42.4°F5.8°C 74% 1.3 mph ENE2.1 kmh ENE 3.1 mph5.0 kmh 30.09 in1019.0 mb 0.00 in0.0 mm 0.00 in0.0 mm 0.00 in0.0 mm
05:23 AM 50.2°F10.1°C 42.0°F5.6°C 73% 2.1 mph ENE3.4 kmh ENE 3.6 mph5.8 kmh 30.09 in1019.0 mb 0.00 in0.0 mm 0.00 in0.0 mm 0.00 in0.0 mm
05:18 AM 50.3°F10.2°C 42.1°F5.6°C 73% 2.6 mph ENE4.2 kmh ENE 3.6 mph5.8 kmh 30.09 in1019.0 mb 0.00 in0.0 mm 0.00 in0.0 mm 0.00 in0.0 mm
05:13 AM 50.5°F10.3°C 42.3°F5.7°C 73% 2.4 mph E3.9 kmh E 3.4 mph5.5 kmh 30.09 in1019.0 mb 0.00 in0.0 mm 0.00 in0.0 mm 0.00 in0.0 mm
05:08 AM 50.5°F10.3°C 42.3°F5.7°C 73% 2.1 mph ENE3.4 kmh ENE 3.6 mph5.8 kmh 30.09 in1019.0 mb 0.00 in0.0 mm 0.00 in0.0 mm 0.00 in0.0 mm
05:03 AM 50.6°F10.3°C 42.3°F5.7°C 73% 2.3 mph ENE3.7 kmh ENE 3.6 mph5.8 kmh 30.09 in1019.0 mb 0.00 in0.0 mm 0.00 in0.0 mm 0.00 in0.0 mm
04:58 AM 50.6°F10.3°C 42.3°F5.7°C 73% 1.6 mph ENE2.6 kmh ENE 3.1 mph5.0 kmh 30.09 in1019.0 mb 0.00 in0.0 mm 0.00 in0.0 mm 0.00 in0.0 mm
04:53 AM 50.7°F10.4°C 42.2°F5.7°C 73% 2.4 mph E3.9 kmh E 3.6 mph5.8 kmh 30.09 in1019.0 mb 0.00 in0.0 mm 0.00 in0.0 mm 0.00 in0.0 mm
04:48 AM 50.8°F10.4°C 42.2°F5.7°C 72% 2.1 mph ENE3.4 kmh ENE 3.6 mph5.8 kmh 30.08 in1018.6 mb 0.00 in0.0 mm 0.00 in0.0 mm 0.00 in0.0 mm
04:43 AM 50.9°F10.5°C 42.3°F5.7°C 72% 2.3 mph ENE3.7 kmh ENE 4.3 mph6.9 kmh 30.08 in1018.6 mb 0.00 in0.0 mm 0.00 in0.0 mm 0.00 in0.0 mm
04:38 AM 51.0°F10.6°C 42.1°F5.6°C 71% 2.6 mph ENE4.2 kmh ENE 4.3 mph6.9 kmh 30.08 in1018.6 mb 0.00 in0.0 mm 0.00 in0.0 mm 0.00 in0.0 mm
04:33 AM 51.2°F10.7°C 42.2°F5.7°C 71% 2.4 mph NE3.9 kmh NE 3.8 mph6.1 kmh 30.08 in1018.6 mb 0.00 in0.0 mm 0.00 in0.0 mm 0.00 in0.0 mm
04:28 AM 51.3°F10.7°C 42.2°F5.7°C 71% 2.1 mph E3.4 kmh E 2.9 mph4.7 kmh 30.08 in1018.6 mb 0.00 in0.0 mm 0.00 in0.0 mm 0.00 in0.0 mm
04:23 AM 51.5°F10.8°C 42.2°F5.7°C 70% 2.3 mph E3.7 kmh E 3.4 mph5.5 kmh 30.08 in1018.6 mb 0.00 in0.0 mm 0.00 in0.0 mm 0.00 in0.0 mm
04:18 AM 51.6°F10.9°C 42.3°F5.7°C 70% 2.1 mph ENE3.4 kmh ENE 3.4 mph5.5 kmh 30.08 in1018.6 mb 0.00 in0.0 mm 0.00 in0.0 mm 0.00 in0.0 mm
04:13 AM 51.7°F10.9°C 42.0°F5.6°C 69% 1.6 mph E2.6 kmh E 2.7 mph4.3 kmh 30.08 in1018.6 mb 0.00 in0.0 mm 0.00 in0.0 mm 0.00 in0.0 mm
04:08 AM 51.8°F11.0°C 41.9°F5.5°C 69% 1.6 mph ENE2.6 kmh ENE 2.7 mph4.3 kmh 30.08 in1018.6 mb 0.00 in0.0 mm 0.00 in0.0 mm 0.00 in0.0 mm
04:03 AM 52.1°F11.2°C 42.2°F5.7°C 69% 1.4 mph E2.3 kmh E 2.7 mph4.3 kmh 30.08 in1018.6 mb 0.00 in0.0 mm 0.00 in0.0 mm 0.00 in0.0 mm
03:58 AM 52.2°F11.2°C 42.3°F5.7°C 69% 1.3 mph E2.1 kmh E 2.7 mph4.3 kmh 30.08 in1018.6 mb 0.00 in0.0 mm 0.00 in0.0 mm 0.00 in0.0 mm
03:53 AM 52.3°F11.3°C 42.7°F5.9°C 70% 1.5 mph ENE2.4 kmh ENE 2.5 mph4.0 kmh 30.08 in1018.6 mb 0.00 in0.0 mm 0.00 in0.0 mm 0.00 in0.0 mm
03:48 AM 52.3°F11.3°C 42.5°F5.8°C 69% 1.4 mph ENE2.3 kmh ENE 2.5 mph4.0 kmh 30.08 in1018.6 mb 0.00 in0.0 mm 0.00 in0.0 mm 0.00 in0.0 mm
03:43 AM 52.5°F11.4°C 42.8°F6.0°C 69% 1.7 mph ENE2.7 kmh ENE 2.5 mph4.0 kmh 30.08 in1018.6 mb 0.00 in0.0 mm 0.00 in0.0 mm 0.00 in0.0 mm
03:38 AM 52.5°F11.4°C 42.7°F5.9°C 69% Calm Calm 2.0 mph3.2 kmh 30.08 in1018.6 mb 0.00 in0.0 mm 0.00 in0.0 mm 0.00 in0.0 mm
03:33 AM 52.5°F11.4°C 42.5°F5.8°C 69% 1.0 mph ENE1.6 kmh ENE 2.0 mph3.2 kmh 30.08 in1018.6 mb 0.00 in0.0 mm 0.00 in0.0 mm 0.00 in0.0 mm
03:28 AM 52.3°F11.3°C 42.4°F5.8°C 69% 0.3 mph NNE0.5 kmh NNE 2.0 mph3.2 kmh 30.08 in1018.6 mb 0.00 in0.0 mm 0.00 in0.0 mm 0.00 in0.0 mm
03:23 AM 52.3°F11.3°C 42.4°F5.8°C 69% 0.3 mph NNW0.5 kmh NNW 1.6 mph2.6 kmh 30.08 in1018.6 mb 0.00 in0.0 mm 0.00 in0.0 mm 0.00 in0.0 mm
03:18 AM 52.2°F11.2°C 42.0°F5.6°C 68% 0.2 mph NNW0.3 kmh NNW 1.6 mph2.6 kmh 30.08 in1018.6 mb 0.00 in0.0 mm 0.00 in0.0 mm 0.00 in0.0 mm
03:13 AM 52.2°F11.2°C 41.9°F5.5°C 68% Calm Calm -- 30.08 in1018.6 mb 0.00 in0.0 mm 0.00 in0.0 mm 0.00 in0.0 mm
03:08 AM 52.3°F11.3°C 41.9°F5.5°C 68% Calm Calm -- 30.08 in1018.6 mb 0.00 in0.0 mm 0.00 in0.0 mm 0.00 in0.0 mm
03:03 AM 52.2°F11.2°C 41.5°F5.3°C 67% Calm Calm -- 30.08 in1018.6 mb 0.00 in0.0 mm 0.00 in0.0 mm 0.00 in0.0 mm
02:58 AM 52.0°F11.1°C 41.2°F5.1°C 66% Calm Calm -- 30.08 in1018.6 mb 0.00 in0.0 mm 0.00 in0.0 mm 0.00 in0.0 mm
02:53 AM 52.0°F11.1°C 41.2°F5.1°C 66% Calm Calm -- 30.08 in1018.6 mb 0.00 in0.0 mm 0.00 in0.0 mm 0.00 in0.0 mm
02:48 AM 52.3°F11.3°C 41.3°F5.2°C 66% Calm Calm -- 30.08 in1018.6 mb 0.00 in0.0 mm 0.00 in0.0 mm 0.00 in0.0 mm
02:43 AM 52.5°F11.4°C 41.2°F5.1°C 65% Calm Calm -- 30.08 in1018.6 mb 0.00 in0.0 mm 0.00 in0.0 mm 0.00 in0.0 mm
02:38 AM 52.7°F11.5°C 41.5°F5.3°C 66% Calm Calm -- 30.08 in1018.6 mb 0.00 in0.0 mm 0.00 in0.0 mm 0.00 in0.0 mm
02:33 AM 52.9°F11.6°C 41.6°F5.3°C 65% Calm Calm -- 30.08 in1018.6 mb 0.00 in0.0 mm 0.00 in0.0 mm 0.00 in0.0 mm
02:28 AM 53.1°F11.7°C 41.5°F5.3°C 65% Calm Calm -- 30.08 in1018.6 mb 0.00 in0.0 mm 0.00 in0.0 mm 0.00 in0.0 mm
02:23 AM 53.1°F11.7°C 41.6°F5.3°C 65% Calm Calm -- 30.08 in1018.6 mb 0.00 in0.0 mm 0.00 in0.0 mm 0.00 in0.0 mm
02:18 AM 53.3°F11.8°C 41.5°F5.3°C 64% Calm Calm -- 30.08 in1018.6 mb 0.00 in0.0 mm 0.00 in0.0 mm 0.00 in0.0 mm
02:13 AM 53.6°F12.0°C 41.7°F5.4°C 64% Calm Calm -- 30.08 in1018.6 mb 0.00 in0.0 mm 0.00 in0.0 mm 0.00 in0.0 mm
02:08 AM 53.9°F12.2°C 42.1°F5.6°C 64% Calm Calm -- 30.08 in1018.6 mb 0.00 in0.0 mm 0.00 in0.0 mm 0.00 in0.0 mm
02:03 AM 54.2°F12.3°C 42.1°F5.6°C 64% Calm Calm -- 30.08 in1018.6 mb 0.00 in0.0 mm 0.00 in0.0 mm 0.00 in0.0 mm
01:58 AM 54.4°F12.4°C 42.1°F5.6°C 63% Calm Calm -- 30.08 in1018.6 mb 0.00 in0.0 mm 0.00 in0.0 mm 0.00 in0.0 mm
01:53 AM 54.6°F12.6°C 42.3°F5.7°C 63% Calm Calm 0.9 mph1.4 kmh 30.08 in1018.6 mb 0.00 in0.0 mm 0.00 in0.0 mm 0.00 in0.0 mm
01:48 AM 54.8°F12.7°C 42.5°F5.8°C 63% Calm Calm 1.6 mph2.6 kmh 30.08 in1018.6 mb 0.00 in0.0 mm 0.00 in0.0 mm 0.00 in0.0 mm
01:43 AM 54.9°F12.7°C 42.5°F5.8°C 63% Calm Calm 2.5 mph4.0 kmh 30.08 in1018.6 mb 0.00 in0.0 mm 0.00 in0.0 mm 0.00 in0.0 mm
01:38 AM 55.0°F12.8°C 42.2°F5.7°C 62% 1.2 mph ESE1.9 kmh ESE 2.5 mph4.0 kmh 30.08 in1018.6 mb 0.00 in0.0 mm 0.00 in0.0 mm 0.00 in0.0 mm
01:33 AM 55.0°F12.8°C 42.2°F5.7°C 62% 0.7 mph E1.1 kmh E 2.0 mph3.2 kmh 30.08 in1018.6 mb 0.00 in0.0 mm 0.00 in0.0 mm 0.00 in0.0 mm
01:28 AM 55.0°F12.8°C 42.2°F5.7°C 62% Calm Calm 2.0 mph3.2 kmh 30.08 in1018.6 mb 0.00 in0.0 mm 0.00 in0.0 mm 0.00 in0.0 mm
01:23 AM 55.0°F12.8°C 42.2°F5.7°C 62% 0.6 mph E1.0 kmh E 2.2 mph3.5 kmh 30.08 in1018.6 mb 0.00 in0.0 mm 0.00 in0.0 mm 0.00 in0.0 mm
01:18 AM 55.1°F12.8°C 42.3°F5.7°C 62% 0.7 mph NNW1.1 kmh NNW 2.2 mph3.5 kmh 30.09 in1019.0 mb 0.00 in0.0 mm 0.00 in0.0 mm 0.00 in0.0 mm
01:13 AM 55.2°F12.9°C 42.3°F5.7°C 62% 0.1 mph SE0.2 kmh SE 2.5 mph4.0 kmh 30.09 in1019.0 mb 0.00 in0.0 mm 0.00 in0.0 mm 0.00 in0.0 mm
01:08 AM 55.2°F12.9°C 41.9°F5.5°C 61% 0.6 mph SE1.0 kmh SE 2.5 mph4.0 kmh 30.09 in1019.0 mb 0.00 in0.0 mm 0.00 in0.0 mm 0.00 in0.0 mm
01:03 AM 55.5°F13.1°C 42.2°F5.7°C 61% 0.8 mph SE1.3 kmh SE 2.5 mph4.0 kmh 30.09 in1019.0 mb 0.00 in0.0 mm 0.00 in0.0 mm 0.00 in0.0 mm
12:58 AM 55.7°F13.2°C 42.4°F5.8°C 61% 0.5 mph S0.8 kmh S 2.5 mph4.0 kmh 30.09 in1019.0 mb 0.00 in0.0 mm 0.00 in0.0 mm 0.00 in0.0 mm
12:53 AM 55.8°F13.2°C 42.3°F5.7°C 60% 0.4 mph SE0.6 kmh SE 2.5 mph4.0 kmh 30.09 in1019.0 mb 0.00 in0.0 mm 0.00 in0.0 mm 0.00 in0.0 mm
12:48 AM 55.9°F13.3°C 42.1°F5.6°C 60% Calm Calm 2.2 mph3.5 kmh 30.09 in1019.0 mb 0.00 in0.0 mm 0.00 in0.0 mm 0.00 in0.0 mm
12:43 AM 55.8°F13.2°C 42.0°F5.6°C 60% 0.7 mph E1.1 kmh E 2.2 mph3.5 kmh 30.09 in1019.0 mb 0.00 in0.0 mm 0.00 in0.0 mm 0.00 in0.0 mm
12:38 AM 55.7°F13.2°C 41.5°F5.3°C 59% 1.0 mph SE1.6 kmh SE 2.2 mph3.5 kmh 30.09 in1019.0 mb 0.00 in0.0 mm 0.00 in0.0 mm 0.00 in0.0 mm
12:33 AM 55.4°F13.0°C 41.1°F5.1°C 58% 1.2 mph NNW1.9 kmh NNW 2.0 mph3.2 kmh 30.09 in1019.0 mb 0.00 in0.0 mm 0.00 in0.0 mm 0.00 in0.0 mm
12:28 AM 55.2°F12.9°C 40.7°F4.8°C 58% 0.5 mph NE0.8 kmh NE 1.6 mph2.6 kmh 30.09 in1019.0 mb 0.00 in0.0 mm 0.00 in0.0 mm 0.00 in0.0 mm
12:23 AM 55.3°F12.9°C 40.3°F4.6°C 57% 0.8 mph NNE1.3 kmh NNE 1.6 mph2.6 kmh 30.09 in1019.0 mb 0.00 in0.0 mm 0.00 in0.0 mm 0.00 in0.0 mm
12:18 AM 55.6°F13.1°C 40.3°F4.6°C 56% 1.3 mph NNE2.1 kmh NNE 1.6 mph2.6 kmh 30.09 in1019.0 mb 0.00 in0.0 mm 0.00 in0.0 mm 0.00 in0.0 mm
12:13 AM 55.8°F13.2°C 40.5°F4.7°C 56% Calm Calm 1.6 mph2.6 kmh 30.10 in1019.3 mb 0.00 in0.0 mm 0.00 in0.0 mm 0.00 in0.0 mm
12:08 AM 55.9°F13.3°C 40.3°F4.6°C 56% 1.1 mph NNE1.8 kmh NNE 1.6 mph2.6 kmh 30.09 in1019.0 mb 0.00 in0.0 mm 0.00 in0.0 mm 0.00 in0.0 mm
12:03 AM 56.2°F13.4°C 40.3°F4.6°C 55% 1.0 mph NE1.6 kmh NE 2.0 mph3.2 kmh 30.10 in1019.3 mb 0.00 in0.0 mm 0.00 in0.0 mm 0.00 in0.0 mm